Weather reports worldwide

Advertisment
Großer Arber, Germany (10791): temperature & dewpoint: 10.01.2018 20:00:00 - 16.01.2018 20:00:00 (CET)Großer Arber, Germany (10791): wind speed & gusts: 10.01.2018 20:00:00 - 16.01.2018 20:00:00 (CET)Großer Arber, Germany (10791): wind direction: 10.01.2018 20:00:00 - 16.01.2018 20:00:00 (CET)Großer Arber, Germany (10791): visibility: 10.01.2018 20:00:00 - 16.01.2018 20:00:00 (CET)Großer Arber, Germany (10791): sunshine duration: 10.01.2018 20:00:00 - 16.01.2018 20:00:00 (CET)Großer Arber, Germany (10791): precipitation: 10.01.2018 20:00:00 - 16.01.2018 20:00:00 (CET)
Date & Time tt [°C] td [°C] ff [km/h] ff [kn] fx [km/h] fx [kn] dd vv [km] sd [min] rr [mm]
16.01.2018 20:00:00 -3,8 -3,8 53 29 79 43 WSW 0,1 0 0,1
16.01.2018 19:00:00 -3,5 -3,5 55 30 86 47 W 0,1 0 0,0
16.01.2018 18:00:00 -3,2 -3,2 64 34 103 56 W 0,1 0 0,1
16.01.2018 17:00:00 -2,9 -2,9 65 35 99 54 W 0,2 0 0,2
16.01.2018 16:00:00 -1,6 -1,6 62 33 96 52 W 0,2 0 2,1
16.01.2018 15:00:00 -1,4 -1,4 63 34 90 49 SW 0,1 0 0,5
16.01.2018 14:00:00 -1,8 -1,9 58 32 91 49 WSW 0,1 0 0,9
16.01.2018 13:00:00 -2,3 -2,3 44 24 83 45 W 0,2 0 3,3
16.01.2018 12:00:00 -1,6 -1,7 44 24 79 43 WSW 0,1 0 1,6
16.01.2018 11:00:00 -2,1 -2,3 51 28 69 37 SW 0,1 0 2,6
16.01.2018 10:00:00 -2,8 -3,0 34 18 57 31 SSW 0,1 0 3,3
16.01.2018 09:00:00 -2,7 -2,9 36 19 64 34 SSW 0,1 0 0,8
16.01.2018 08:00:00 -3,0 -3,3 36 20 59 32 SSW 0,1 0 0,5
16.01.2018 07:00:00 -3,3 -3,6 44 24 66 35 SW 0,1 0 0,5
16.01.2018 06:00:00 -4,1 -4,6 54 29 68 37 SW 0,1 0 1,3
16.01.2018 05:00:00 -4,5 -5,1 39 21 61 33 SSW 0,1 0 0,9
16.01.2018 04:00:00 -4,6 -5,3 41 22 63 34 S 0,1 0 1,2
16.01.2018 03:00:00 -4,2 -4,8 44 24 64 35 S 0,1 0 1,4
16.01.2018 02:00:00 -4,6 -5,3 46 25 64 34 S 0,1 0 0,0
16.01.2018 01:00:00 -4,8 -7,7 38 21 67 36 S 10 0 0,0
16.01.2018 00:00:00 -4,2 -7,2 37 20 58 31 S 11 0 0,0
15.01.2018 23:00:00 -4,0 -6,0 35 19 48 26 S 11 0 0,0
15.01.2018 22:00:00 -4,2 -6,3 34 18 44 24 S 10 0 0,0
15.01.2018 21:00:00 -4,3 -6,1 33 18 42 23 S 11 0 0,0
15.01.2018 20:00:00 -4,0 -6,4 30 16 36 19 S 11 0 0,0
15.01.2018 19:00:00 -4,3 -6,1 28 15 40 21 SSW 11 0 0,0
15.01.2018 18:00:00 -5,1 -8,4 27 15 36 20 SSW 10 0 0,0
15.01.2018 17:00:00 -5,4 -8,2 25 14 34 18 SSW 11 3 0,0
15.01.2018 16:00:00 -3,5 -4,2 24 13 28 15 SW 0,2 39 0,0
15.01.2018 15:00:00 -3,6 -4,7 24 13 27 15 WSW 11 0 0,0
15.01.2018 14:00:00 -6,4 -9,3 9 5 16 9 SSW 11 18 0,0
15.01.2018 13:00:00 -5,7 -8,1 9 5 35 19 SW 11 57 0,0
15.01.2018 12:00:00 -6,0 -8,6 15 8 35 19 SSW 11 60 0,0
15.01.2018 11:00:00 -7,6 -10,0 23 12 38 21 S 11 60 0,0
15.01.2018 10:00:00 -8,3 -9,7 29 16 38 21 S 7 30 0,0
15.01.2018 09:00:00 -8,9 -10,0 27 15 34 18 SSE 0,1 0 0,0
15.01.2018 08:00:00 -8,5 -9,7 16 9 22 12 S 10 0 0,0
15.01.2018 07:00:00 -8,5 -9,6 11 6 19 10 S 1,9 0 0,0
15.01.2018 06:00:00 -8,3 -9,2 12 6 18 10 S 0,2 0 0,0
15.01.2018 05:00:00 -8,1 -9,1 10 5 16 8 S 0,2 0 0,0
15.01.2018 04:00:00 -7,8 -8,5 11 6 19 11 SSE 0,1 0 0,0
15.01.2018 03:00:00 -7,5 -8,3 13 7 20 11 S 0,2 0 0,0
15.01.2018 02:00:00 -7,4 -8,3 16 8 22 12 SSE 0,1 0 0,0
15.01.2018 01:00:00 -7,4 -8,3 17 9 21 12 SSE 0,1 0 0,0
15.01.2018 00:00:00 -7,3 -8,2 19 10 23 12 SE 0,2 0 0,0
14.01.2018 23:00:00 -7,2 -8,0 18 10 23 13 SE 0,2 0 0,0
14.01.2018 22:00:00 -7,8 -8,7 13 7 21 11 ESE 0,1 0 0,0
14.01.2018 21:00:00 -7,8 -8,6 13 7 20 11 E 0,1 0 0,0
14.01.2018 20:00:00 -7,9 -8,7 14 8 17 9 E 0,1 0 0,0
14.01.2018 19:00:00 -7,9 -8,7 13 7 18 10 E 0,1 0 0,0
14.01.2018 18:00:00 -7,9 -8,6 13 7 23 12 ENE 0,1 0 0,0
14.01.2018 17:00:00 -7,8 -8,6 14 8 20 11 E 0,1 0 0,0
14.01.2018 16:00:00 -7,6 -8,3 8 5 32 18 ENE 0,1 0 0,0
14.01.2018 15:00:00 -7,6 -8,5 20 11 33 18 E 0,1 0 0,0
14.01.2018 14:00:00 -7,3 -8,1 13 7 28 15 E 0,1 0 0,0
14.01.2018 13:00:00 -7,1 -8,2 13 7 23 13 ENE 0,1 0 0,0
14.01.2018 12:00:00 -7,1 -8,0 10 5 29 16 ENE 0,1 0 0,0
14.01.2018 11:00:00 -7,2 -8,3 15 8 35 19 ENE 0,1 0 0,0
14.01.2018 10:00:00 -7,3 -8,3 13 7 29 16 ENE 0,1 0 0,0
14.01.2018 09:00:00 -7,3 -8,2 16 8 27 15 ENE 0,1 0 0,0
14.01.2018 08:00:00 -7,3 -8,2 13 7 26 14 E 0,1 0 0,0
14.01.2018 07:00:00 -7,2 -8,0 11 6 26 14 ENE 0,1 0 0,0
14.01.2018 06:00:00 -7,1 -7,8 14 8 27 15 E 0,1 0 0,0
14.01.2018 05:00:00 -7,0 -7,8 15 8 26 14 E 0,1 0 0,0
14.01.2018 04:00:00 -7,0 -7,8 20 11 36 19 E 0,1 0 0,0
14.01.2018 03:00:00 -7,1 -7,9 21 11 36 19 E 0,1 0 0,0
14.01.2018 02:00:00 -7,2 -8,0 20 11 32 17 E 0,1 0 0,0
14.01.2018 01:00:00 -7,3 -8,1 22 12 34 19 E 0,1 0 0,0
14.01.2018 00:00:00 -7,6 -8,5 20 11 29 16 E 0,1 0 0,0
13.01.2018 23:00:00 -7,7 -8,5 14 8 33 18 E 0,1 0 0,0
13.01.2018 22:00:00 -8,1 -9,0 25 13 35 19 E 0,1 0 0,0
13.01.2018 21:00:00 -8,3 -9,3 24 13 34 18 E 0,1 0 0,0
13.01.2018 20:00:00 -8,3 -9,3 23 12 32 17 E 0,1 0 0,0
13.01.2018 19:00:00 -8,1 -9,0 16 8 23 12 E 0,1 0 0,0
13.01.2018 18:00:00 -7,9 -8,8 18 10 23 12 ENE 0,1 0 0,0
13.01.2018 17:00:00 -7,3 -8,0 18 10 26 14 ENE 0,1 21 0,0
13.01.2018 16:00:00 -6,5 -7,4 16 9 24 13 ENE 0,1 12 0,0
13.01.2018 15:00:00 -5,9 -6,7 19 11 27 15 E 0,1 0 0,0
13.01.2018 14:00:00 -5,1 -6,0 17 9 23 13 ENE 0,1 26 0,0
13.01.2018 13:00:00 -4,9 -5,8 17 9 27 14 E 0,1 0 0,0
13.01.2018 12:00:00 -4,8 -5,6 21 11 29 15 E 0,1 0 0,0
13.01.2018 11:00:00 -4,5 -5,2 13 7 27 15 ENE 0,1 0 0,0
13.01.2018 10:00:00 -4,6 -5,1 21 11 29 16 E 0,1 0 0,0
13.01.2018 09:00:00 -4,5 -4,9 17 9 27 14 ENE 0,1 0 0,0
13.01.2018 08:00:00 -4,5 -4,9 21 11 28 15 E 0,1 0 0,0
13.01.2018 07:00:00 -4,3 -4,7 20 11 34 18 ENE 0,1 0 0,0
13.01.2018 06:00:00 -4,2 -4,7 20 11 31 17 ENE 0,1 0 0,0
13.01.2018 05:00:00 -4,1 -4,4 20 11 28 15 ENE 0,1 0 0,0
13.01.2018 04:00:00 -4,0 -4,2 19 10 28 15 ENE 0,1 0 0,0
13.01.2018 03:00:00 -4,1 -4,4 16 9 24 13 ENE 0,1 0 0,0
13.01.2018 02:00:00 -4,2 -4,5 16 9 26 14 ENE 0,1 0 0,0
13.01.2018 01:00:00 -4,4 -4,8 14 8 26 14 ENE 0,1 0 0,0
13.01.2018 00:00:00 -4,1 -6,0 9 5 18 10 ESE 11 0 0,0
12.01.2018 23:00:00 -4,5 -5,7 11 6 14 8 ESE 0,3 0 0,0
12.01.2018 22:00:00 -3,8 -5,7 11 6 18 10 ESE 10 0 0,0
12.01.2018 21:00:00 -4,3 -4,9 12 6 16 9 E 0,1 0 0,0
12.01.2018 20:00:00 -4,1 -5,0 14 7 17 9 E 0,3 0 0,0
12.01.2018 19:00:00 -3,8 -4,2 14 7 20 11 E 0,1 0 0,0
12.01.2018 18:00:00 -3,5 -3,8 14 8 25 14 E 0,1 0 0,0
12.01.2018 17:00:00 -3,3 -3,5 19 10 27 14 ENE 0,1 0 0,0
12.01.2018 16:00:00 -3,0 -3,4 17 9 25 13 ENE 0,1 0 0,0
12.01.2018 15:00:00 -2,4 -2,9 14 7 18 10 NE 0,1 0 0,0
12.01.2018 14:00:00 -1,7 -2,6 8 4 16 9 NE 0,4 9 0,0
12.01.2018 13:00:00 -1,7 -3,4 10 5 21 11 NE 11 27 0,0
12.01.2018 12:00:00 -2,1 -3,0 14 7 22 12 ENE 0,2 7 0,0
12.01.2018 11:00:00 -1,8 -2,6 10 5 19 10 NE 0,2 0 0,0
12.01.2018 10:00:00 -2,3 -2,8 12 7 19 10 NE 0,1 0 0,0
12.01.2018 09:00:00 -2,4 -2,8 13 7 20 11 NE 0,1 0 0,0
12.01.2018 08:00:00 -2,3 -2,6 15 8 18 10 NE 0,1 0 0,4
12.01.2018 07:00:00 -2,3 -2,7 15 8 17 9 NNE 0,5 0 0,0
12.01.2018 06:00:00 -2,4 -2,7 13 7 15 8 NE 0,1 0 0,0
12.01.2018 05:00:00 -2,5 -2,8 13 7 17 9 NE 0,2 0 0,0
12.01.2018 04:00:00 -2,5 -2,7 13 7 21 11 NE 0,1 0 0,0
12.01.2018 03:00:00 -2,4 -2,6 15 8 22 12 NE 0,4 0 0,0
12.01.2018 02:00:00 -2,5 -2,8 15 8 21 11 NE 0,2 0 0,0
12.01.2018 01:00:00 -2,6 -4,2 15 8 22 12 NE 11 0 0,0
12.01.2018 00:00:00 -2,3 -4,7 16 9 22 12 NE 11 0 0,0
11.01.2018 23:00:00 -2,3 -4,6 17 9 23 12 NE 11 0 0,0
11.01.2018 22:00:00 -2,3 -5,3 16 9 19 10 NE 11 0 0,0
11.01.2018 21:00:00 -1,9 -5,4 15 8 21 11 ENE 11 0 0,0
11.01.2018 20:00:00 -1,7 -5,8 16 9 23 12 ENE 10 0 0,0
11.01.2018 19:00:00 -0,9 -5,5 16 9 21 12 ENE 11 0 0,0
11.01.2018 18:00:00 -1,4 -6,2 13 7 21 11 E 10 0 0,0
11.01.2018 17:00:00 -0,5 -6,5 15 8 21 12 ENE 11 27 0,0
11.01.2018 16:00:00 -0,5 -5,3 12 6 15 8 ENE 11 18 0,0
11.01.2018 15:00:00 -0,3 -5,0 10 5 12 7 E 11 57 0,0
11.01.2018 14:00:00 0,2 -4,6 10 5 15 8 E 11 60 0,0
11.01.2018 13:00:00 0,4 -4,4 11 6 15 8 ENE 10 60 0,0
11.01.2018 12:00:00 1,2 -4,1 6 3 9 5 NE 11 60 0,0
11.01.2018 11:00:00 0,7 -3,8 8 5 14 8 ENE 11 60 0,0
11.01.2018 10:00:00 0,4 -4,1 10 6 15 8 NE 11 60 0,0
11.01.2018 09:00:00 -0,4 -3,4 11 6 20 11 NE 11 28 0,0
11.01.2018 08:00:00 -1,1 -3,3 16 8 19 10 NE 11 0 0,0
11.01.2018 07:00:00 -1,0 -3,5 13 7 20 11 E 11 0 0,0
11.01.2018 06:00:00 -1,1 -3,8 14 8 20 11 E 11 0 0,0
11.01.2018 05:00:00 -0,5 -4,7 16 9 21 11 E 11 0 0,0
11.01.2018 04:00:00 -0,6 -5,4 11 6 15 8 E 11 0 0,0
11.01.2018 03:00:00 -0,8 -5,7 9 5 13 7 E 10 0 0,0
11.01.2018 02:00:00 -0,7 -5,2 12 6 13 7 E 11 0 0,0
11.01.2018 01:00:00 -0,6 -5,5 10 5 16 9 E 11 0 0,0
11.01.2018 00:00:00 -0,6 -5,3 11 6 16 9 E 11 0 0,0
10.01.2018 23:00:00 0,2 -4,7 12 6 22 12 E 11 0 0,0
10.01.2018 22:00:00 0,3 -4,7 18 10 23 12 ENE 11 0 0,0
10.01.2018 21:00:00 0,2 -4,4 17 9 25 14 ENE 11 0 0,0
10.01.2018 20:00:00 0,0 -3,5 17 9 35 19 NE 11 0 0,0

tt = temperature
td = dewpoint
ff = wind speed
fx = gusts
dd = wind direction
vv = visibility
sd = sunshine duration
rr = precipitation

Next stations